createdAt,value
2023-04-23T00:00:12.160Z,15.6
2023-04-23T00:03:13.281Z,15.6
2023-04-23T00:06:11.943Z,15.6
2023-04-23T00:09:12.202Z,15.5
2023-04-23T00:12:11.938Z,15.5
2023-04-23T00:15:12.317Z,15.4
2023-04-23T00:18:12.072Z,15.3
2023-04-23T00:21:12.130Z,15.1
2023-04-23T00:24:20.631Z,15
2023-04-23T00:27:15.706Z,15
2023-04-23T00:30:11.945Z,14.9
2023-04-23T00:33:12.611Z,14.9
2023-04-23T00:36:13.204Z,14.9
2023-04-23T00:39:12.041Z,14.9
2023-04-23T00:42:11.924Z,14.9
2023-04-23T00:45:12.026Z,14.9
2023-04-23T00:48:11.929Z,14.9
2023-04-23T00:51:11.988Z,14.9
2023-04-23T00:54:11.949Z,14.7
2023-04-23T00:57:12.036Z,14.7
2023-04-23T01:00:11.928Z,14.7
2023-04-23T01:03:13.072Z,14.6
2023-04-23T01:06:12.099Z,14.6
2023-04-23T01:09:12.044Z,14.6
2023-04-23T01:12:12.109Z,14.6
2023-04-23T01:15:12.948Z,14.6
2023-04-23T01:18:12.017Z,14.6
2023-04-23T01:21:11.892Z,14.6
2023-04-23T01:24:12.272Z,14.7
2023-04-23T01:27:12.005Z,14.7
2023-04-23T01:30:12.062Z,14.7
2023-04-23T01:33:11.990Z,14.9
2023-04-23T01:36:12.652Z,15
2023-04-23T01:39:12.076Z,15
2023-04-23T01:42:11.931Z,15
2023-04-23T01:45:13.650Z,15.1
2023-04-23T01:48:12.279Z,15.1
2023-04-23T01:51:11.847Z,15.1
2023-04-23T01:54:11.892Z,15.1
2023-04-23T01:57:11.940Z,15.1
2023-04-23T02:00:11.886Z,15.1
2023-04-23T02:03:13.597Z,15.3
2023-04-23T02:06:11.944Z,15.1
2023-04-23T02:09:11.902Z,15.1
2023-04-23T02:12:11.941Z,15.1
2023-04-23T02:15:12.138Z,15
2023-04-23T02:18:12.110Z,15
2023-04-23T02:21:12.214Z,15
2023-04-23T02:24:11.947Z,14.9
2023-04-23T02:27:11.961Z,14.9
2023-04-23T02:30:11.845Z,14.7
2023-04-23T02:33:12.190Z,14.7
2023-04-23T02:36:11.895Z,14.6
2023-04-23T02:39:11.829Z,14.5
2023-04-23T02:42:11.896Z,14.4
2023-04-23T02:45:11.859Z,14.3
2023-04-23T02:48:12.139Z,14.1
2023-04-23T02:51:11.883Z,14
2023-04-23T02:54:11.888Z,13.9
2023-04-23T02:57:11.975Z,13.8
2023-04-23T03:00:11.996Z,13.6
2023-04-23T03:03:15.069Z,13.5
2023-04-23T03:06:11.979Z,13.4
2023-04-23T03:09:11.963Z,13.3
2023-04-23T03:12:11.837Z,13.3
2023-04-23T03:15:11.961Z,13.1
2023-04-23T03:18:12.001Z,13.1
2023-04-23T03:21:11.894Z,13
2023-04-23T03:24:11.921Z,13
2023-04-23T03:27:11.954Z,12.9
2023-04-23T03:30:11.943Z,12.9
2023-04-23T03:33:11.980Z,12.9
2023-04-23T03:36:11.884Z,12.9
2023-04-23T03:39:11.931Z,12.9
2023-04-23T03:42:11.890Z,12.8
2023-04-23T03:45:11.895Z,12.8
2023-04-23T03:48:12.101Z,12.8
2023-04-23T03:51:11.957Z,12.6
2023-04-23T03:54:11.857Z,12.6
2023-04-23T03:57:11.926Z,12.6
2023-04-23T04:00:12.028Z,12.6
2023-04-23T04:03:12.903Z,12.6
2023-04-23T04:06:11.992Z,12.5
2023-04-23T04:09:11.945Z,12.5
2023-04-23T04:12:11.946Z,12.5
2023-04-23T04:15:12.051Z,12.5
2023-04-23T04:18:12.107Z,12.5
2023-04-23T04:21:12.002Z,12.5
2023-04-23T04:24:11.926Z,12.5
2023-04-23T04:27:11.978Z,12.5
2023-04-23T04:30:11.947Z,12.5
2023-04-23T04:33:11.881Z,12.5
2023-04-23T04:36:11.926Z,12.5
2023-04-23T04:39:12.032Z,12.5
2023-04-23T04:42:11.920Z,12.5
2023-04-23T04:45:11.880Z,12.5
2023-04-23T04:48:11.991Z,12.5
2023-04-23T04:51:12.050Z,12.6
2023-04-23T04:54:11.881Z,12.5
2023-04-23T04:57:12.004Z,12.5
2023-04-23T05:00:11.973Z,12.6
2023-04-23T05:03:16.665Z,12.6
2023-04-23T05:06:11.979Z,12.6
2023-04-23T05:09:12.027Z,12.6
2023-04-23T05:12:11.929Z,12.6
2023-04-23T05:15:12.008Z,12.8
2023-04-23T05:18:13.306Z,12.9
2023-04-23T05:21:11.966Z,13
2023-04-23T05:24:11.907Z,13.1
2023-04-23T05:27:11.938Z,13.3
2023-04-23T05:30:12.976Z,13.3
2023-04-23T05:33:12.090Z,13.4
2023-04-23T05:36:11.945Z,13.5
2023-04-23T05:39:12.013Z,13.6
2023-04-23T05:42:12.001Z,13.8
2023-04-23T05:45:14.919Z,14
2023-04-23T05:48:12.335Z,14.1
2023-04-23T05:51:12.014Z,14.1
2023-04-23T05:54:11.963Z,14.1
2023-04-23T05:57:12.017Z,14.3
2023-04-23T06:00:12.183Z,14.3
2023-04-23T06:03:13.127Z,14.5
2023-04-23T06:06:12.378Z,14.6
2023-04-23T06:09:11.896Z,14.7
2023-04-23T06:12:12.032Z,14.9
2023-04-23T06:15:11.962Z,14.9
2023-04-23T06:18:12.544Z,14.7
2023-04-23T06:21:11.985Z,14.7
2023-04-23T06:24:12.061Z,14.6
2023-04-23T06:27:11.888Z,14.4
2023-04-23T06:30:12.090Z,14.4
2023-04-23T06:33:12.167Z,14.4
2023-04-23T06:36:11.850Z,14.4
2023-04-23T06:39:11.963Z,14.4
2023-04-23T06:42:11.915Z,14.5
2023-04-23T06:45:14.004Z,14.6
2023-04-23T06:48:12.559Z,14.7
2023-04-23T06:51:12.053Z,15
2023-04-23T06:54:11.899Z,15.1
2023-04-23T06:57:12.092Z,15.4
2023-04-23T07:00:12.290Z,15.5
2023-04-23T07:03:12.815Z,15.5
2023-04-23T07:06:12.054Z,15.5
2023-04-23T07:09:11.876Z,15.6
2023-04-23T07:12:11.927Z,15.8
2023-04-23T07:15:12.274Z,15.8
2023-04-23T07:18:12.282Z,15.9
2023-04-23T07:21:12.094Z,16
2023-04-23T07:24:12.019Z,16.4
2023-04-23T07:27:12.139Z,16.9
2023-04-23T07:30:11.919Z,17.4
2023-04-23T07:33:12.254Z,17.5
2023-04-23T07:36:11.913Z,17.8
2023-04-23T07:39:12.018Z,18.4
2023-04-23T07:42:11.976Z,20.4
2023-04-23T07:45:12.108Z,22.6
2023-04-23T07:48:12.177Z,22.5
2023-04-23T07:51:11.852Z,23.3
2023-04-23T07:54:12.049Z,25.8
2023-04-23T07:57:11.932Z,27.4
2023-04-23T08:00:12.054Z,28.5
2023-04-23T08:03:28.786Z,30.4
2023-04-23T08:06:11.955Z,31.9
2023-04-23T08:09:11.944Z,32.4
2023-04-23T08:12:11.922Z,32.4
2023-04-23T08:15:12.024Z,31.4
2023-04-23T08:18:12.042Z,31.8
2023-04-23T08:21:12.062Z,33.6
2023-04-23T08:24:12.084Z,35.7
2023-04-23T08:27:12.192Z,35.5
2023-04-23T08:30:12.052Z,37.9
2023-04-23T08:33:12.201Z,39.7
2023-04-23T08:36:11.926Z,40.6
2023-04-23T08:39:11.947Z,40.8
2023-04-23T08:42:11.918Z,40.4
2023-04-23T08:45:12.095Z,40.8
2023-04-23T08:48:14.052Z,37.7
2023-04-23T08:51:11.948Z,37.5
2023-04-23T08:54:12.106Z,39.1
2023-04-23T08:57:11.976Z,40.2
2023-04-23T09:00:12.089Z,41.4
2023-04-23T09:03:13.504Z,42.4
2023-04-23T09:06:11.984Z,43.1
2023-04-23T09:09:11.912Z,40.2
2023-04-23T09:12:11.964Z,40
2023-04-23T09:15:11.919Z,38.4
2023-04-23T09:18:12.375Z,40.6
2023-04-23T09:21:11.968Z,41.7
2023-04-23T09:24:11.878Z,42.7
2023-04-23T09:27:12.071Z,42.4
2023-04-23T09:30:12.053Z,43.6
2023-04-23T09:33:12.246Z,44.4
2023-04-23T09:36:11.909Z,44.7
2023-04-23T09:39:12.025Z,45
2023-04-23T09:42:11.906Z,44.9
2023-04-23T09:45:12.203Z,44.9
2023-04-23T09:48:12.259Z,44.9
2023-04-23T09:51:11.907Z,45.2
2023-04-23T09:54:12.201Z,45.4
2023-04-23T09:57:11.938Z,45.4
2023-04-23T10:00:27.594Z,45.5
2023-04-23T10:03:13.720Z,45.2
2023-04-23T10:06:57.659Z,45.2
2023-04-23T10:09:12.017Z,45.4
2023-04-23T10:12:39.672Z,45.1
2023-04-23T10:15:12.245Z,45.2
2023-04-23T10:18:12.752Z,45.8
2023-04-23T10:21:11.966Z,46.1
2023-04-23T10:24:11.908Z,46.1
2023-04-23T10:27:49.013Z,45.6
2023-04-23T10:30:14.691Z,46.2
2023-04-23T10:33:49.705Z,46.6
2023-04-23T10:36:12.035Z,46.7
2023-04-23T10:39:20.719Z,47.4
2023-04-23T10:42:12.016Z,47.5
2023-04-23T10:45:34.679Z,47.2
2023-04-23T10:48:12.048Z,47.2
2023-04-23T10:54:12.059Z,48
2023-04-23T10:57:11.917Z,48.5
2023-04-23T11:00:12.106Z,48.9
2023-04-23T11:03:13.000Z,48.3
2023-04-23T11:06:11.992Z,48.4
2023-04-23T11:09:11.913Z,47.9
2023-04-23T11:12:11.954Z,46.7
2023-04-23T11:15:11.984Z,45.1
2023-04-23T11:18:12.305Z,45.9
2023-04-23T11:21:12.020Z,46.5
2023-04-23T11:24:12.098Z,42.5
2023-04-23T11:27:12.009Z,40.8
2023-04-23T11:30:11.986Z,40.1
2023-04-23T11:33:13.244Z,42.5
2023-04-23T11:36:12.001Z,42.6
2023-04-23T11:39:12.053Z,45.2
2023-04-23T11:42:12.081Z,45
2023-04-23T11:45:11.980Z,48
2023-04-23T11:48:12.603Z,49.7
2023-04-23T11:51:11.925Z,49.1
2023-04-23T11:54:11.964Z,46.5
2023-04-23T11:57:12.073Z,48
2023-04-23T12:00:12.144Z,49.6
2023-04-23T12:03:13.815Z,48.5
2023-04-23T12:06:11.946Z,43.6
2023-04-23T12:09:12.002Z,40.4
2023-04-23T12:12:11.994Z,38.2
2023-04-23T12:15:12.092Z,38.2
2023-04-23T12:18:12.156Z,40.1
2023-04-23T12:21:11.971Z,45
2023-04-23T12:24:12.041Z,44
2023-04-23T12:27:12.569Z,47.5
2023-04-23T12:30:15.825Z,48.6
2023-04-23T12:33:12.259Z,44
2023-04-23T12:36:12.034Z,41.7
2023-04-23T12:39:11.969Z,39.6
2023-04-23T12:42:12.141Z,39.5
2023-04-23T12:45:11.985Z,37.6
2023-04-23T12:48:12.316Z,37
2023-04-23T12:51:11.958Z,37.9
2023-04-23T12:54:11.972Z,36.9
2023-04-23T12:57:12.051Z,35.1
2023-04-23T13:00:12.162Z,33
2023-04-23T13:03:12.670Z,31
2023-04-23T13:06:11.968Z,29.4
2023-04-23T13:09:11.982Z,27.8
2023-04-23T13:12:12.038Z,26.2
2023-04-23T13:15:12.036Z,25
2023-04-23T13:18:12.221Z,23.9
2023-04-23T13:21:12.013Z,22.5
2023-04-23T13:24:11.934Z,21.5
2023-04-23T13:27:12.006Z,20.8
2023-04-23T13:30:12.082Z,20.5
2023-04-23T13:33:12.291Z,20.8
2023-04-23T13:36:11.934Z,21.1
2023-04-23T13:39:11.929Z,21.2
2023-04-23T13:45:13.492Z,21.9
2023-04-23T13:48:12.432Z,22.9
2023-04-23T13:51:39.988Z,25
2023-04-23T13:54:12.016Z,27.2
2023-04-23T13:57:11.906Z,28.9
2023-04-23T14:00:12.138Z,29.9
2023-04-23T14:03:12.741Z,30.5
2023-04-23T14:06:11.999Z,30.1
2023-04-23T14:09:12.083Z,30.8
2023-04-23T14:12:12.059Z,33.5
2023-04-23T14:15:11.932Z,33.1
2023-04-23T14:18:12.090Z,32.4
2023-04-23T14:21:12.762Z,31.8
2023-04-23T14:24:12.191Z,31.2
2023-04-23T14:27:14.592Z,30.6
2023-04-23T14:30:12.248Z,30.1
2023-04-23T14:33:12.172Z,29.1
2023-04-23T14:36:12.009Z,27.9
2023-04-23T14:39:12.132Z,26.8
2023-04-23T14:42:12.020Z,25.8
2023-04-23T14:45:11.981Z,25
2023-04-23T14:48:11.978Z,24.1
2023-04-23T14:51:12.070Z,23.3
2023-04-23T14:54:12.061Z,22.6
2023-04-23T14:57:11.921Z,22
2023-04-23T15:00:12.095Z,21.4
2023-04-23T15:03:13.313Z,20.9
2023-04-23T15:06:12.027Z,20.4
2023-04-23T15:09:12.002Z,20.1
2023-04-23T15:12:11.963Z,20.1
2023-04-23T15:15:11.982Z,20.3
2023-04-23T15:18:12.480Z,20.4
2023-04-23T15:21:12.103Z,20.6
2023-04-23T15:24:11.957Z,20.9
2023-04-23T15:27:12.119Z,21.2
2023-04-23T15:30:11.954Z,21.5
2023-04-23T15:33:12.038Z,21.8
2023-04-23T15:36:11.912Z,22
2023-04-23T15:39:12.100Z,22.1
2023-04-23T15:42:11.998Z,22.1
2023-04-23T15:45:11.936Z,22.2
2023-04-23T15:48:12.257Z,22.4
2023-04-23T15:51:12.012Z,22.1
2023-04-23T15:54:12.048Z,21.8
2023-04-23T15:57:11.881Z,21.5
2023-04-23T16:00:12.425Z,21.4
2023-04-23T16:03:13.119Z,21.1
2023-04-23T16:06:14.133Z,21
2023-04-23T16:09:12.124Z,21
2023-04-23T16:12:14.037Z,21
2023-04-23T16:18:12.776Z,21.4
2023-04-23T16:21:11.954Z,21.6
2023-04-23T16:24:12.239Z,21.8
2023-04-23T16:27:12.010Z,21.9
2023-04-23T16:30:12.165Z,21.9
2023-04-23T16:33:12.350Z,22.1
2023-04-23T16:36:11.948Z,22
2023-04-23T16:39:11.938Z,21.5
2023-04-23T16:42:12.050Z,21
2023-04-23T16:45:12.004Z,20.8
2023-04-23T16:48:12.002Z,20.5
2023-04-23T16:51:12.093Z,20.6
2023-04-23T16:54:12.024Z,20.4
2023-04-23T16:57:12.119Z,19.9
2023-04-23T17:00:12.061Z,19.6
2023-04-23T17:03:13.030Z,19.4
2023-04-23T17:06:12.025Z,19.1
2023-04-23T17:09:12.060Z,18.9
2023-04-23T17:12:12.029Z,18.6
2023-04-23T17:15:12.100Z,18.4
2023-04-23T17:18:14.875Z,18.3
2023-04-23T17:21:12.003Z,18
2023-04-23T17:24:12.119Z,17.8
2023-04-23T17:27:12.834Z,17.6
2023-04-23T17:30:11.991Z,17.4
2023-04-23T17:33:12.165Z,17.1
2023-04-23T17:36:11.939Z,16.9
2023-04-23T17:39:12.021Z,16.5
2023-04-23T17:42:12.062Z,16.3
2023-04-23T17:45:12.048Z,16
2023-04-23T17:48:12.682Z,15.9
2023-04-23T17:51:12.046Z,15.8
2023-04-23T17:54:13.552Z,15.6
2023-04-23T17:57:11.931Z,15.5
2023-04-23T18:00:12.282Z,15.4
2023-04-23T18:03:13.565Z,15.3
2023-04-23T18:06:12.169Z,15.1
2023-04-23T18:09:12.275Z,15
2023-04-23T18:12:11.955Z,14.9
2023-04-23T18:15:11.928Z,14.7
2023-04-23T18:18:12.477Z,14.6
2023-04-23T18:21:11.987Z,14.4
2023-04-23T18:24:11.984Z,14.3
2023-04-23T18:27:11.951Z,14
2023-04-23T18:30:12.293Z,13.9
2023-04-23T18:33:12.186Z,13.6
2023-04-23T18:36:12.092Z,13.4
2023-04-23T18:39:12.264Z,13.3
2023-04-23T18:42:12.001Z,13
2023-04-23T18:45:11.912Z,12.8
2023-04-23T18:48:12.132Z,12.5
2023-04-23T18:51:11.853Z,12.4
2023-04-23T18:54:11.958Z,12.1
2023-04-23T18:57:11.829Z,12
2023-04-23T19:00:11.936Z,11.8
2023-04-23T19:03:36.101Z,11.6
2023-04-23T19:06:12.140Z,11.5
2023-04-23T19:09:11.968Z,11.5
2023-04-23T19:12:11.950Z,11.4
2023-04-23T19:15:11.921Z,11.4
2023-04-23T19:18:12.218Z,11.3
2023-04-23T19:21:11.908Z,11.3
2023-04-23T19:24:11.920Z,11.1
2023-04-23T19:27:11.989Z,11.1
2023-04-23T19:30:12.092Z,11
2023-04-23T19:33:12.145Z,11
2023-04-23T19:36:11.994Z,10.8
2023-04-23T19:39:11.947Z,10.8
2023-04-23T19:42:11.885Z,10.6
2023-04-23T19:45:11.971Z,10.6
2023-04-23T19:48:12.271Z,10.8
2023-04-23T19:51:11.904Z,10.9
2023-04-23T19:54:11.917Z,11
2023-04-23T19:57:11.886Z,11
2023-04-23T20:00:12.046Z,11.1
2023-04-23T20:03:13.339Z,11.1
2023-04-23T20:06:11.932Z,11.1
2023-04-23T20:09:12.018Z,11.1
2023-04-23T20:12:11.824Z,11.3
2023-04-23T20:15:11.799Z,11.3
2023-04-23T20:18:12.284Z,11.3
2023-04-23T20:21:12.020Z,11.4
2023-04-23T20:24:11.832Z,11.4
2023-04-23T20:27:11.899Z,11.4
2023-04-23T20:30:11.974Z,11.4
2023-04-23T20:33:12.222Z,11.4
2023-04-23T20:36:11.873Z,11.5
2023-04-23T20:39:12.002Z,11.5
2023-04-23T20:42:11.930Z,11.5
2023-04-23T20:45:11.849Z,11.5
2023-04-23T20:48:12.038Z,11.6
2023-04-23T20:51:11.933Z,11.8
2023-04-23T20:54:11.835Z,11.8
2023-04-23T20:57:11.892Z,11.8
2023-04-23T21:00:11.958Z,11.9
2023-04-23T21:03:12.968Z,11.9
2023-04-23T21:06:11.900Z,12
2023-04-23T21:09:11.903Z,12
2023-04-23T21:12:11.947Z,12
2023-04-23T21:15:11.888Z,12.1
2023-04-23T21:18:12.237Z,12.1
2023-04-23T21:21:11.958Z,12.1
2023-04-23T21:24:12.035Z,12.1
2023-04-23T21:27:11.877Z,12.1
2023-04-23T21:30:12.077Z,12.1
2023-04-23T21:33:12.192Z,12.1
2023-04-23T21:36:11.887Z,12.1
2023-04-23T21:39:14.987Z,12.2
2023-04-23T21:42:11.976Z,12.2
2023-04-23T21:45:11.977Z,12.2
2023-04-23T21:48:12.533Z,12.2
2023-04-23T21:51:11.828Z,12.4
2023-04-23T21:54:11.970Z,12.5
2023-04-23T21:57:11.863Z,12.6
2023-04-23T22:00:12.590Z,12.9
2023-04-23T22:03:25.616Z,13
2023-04-23T22:06:12.160Z,13.1
2023-04-23T22:09:11.873Z,13.3
2023-04-23T22:12:13.938Z,13.3
2023-04-23T22:15:11.989Z,13.4
2023-04-23T22:18:12.599Z,13.4
2023-04-23T22:21:11.901Z,13.3
2023-04-23T22:24:11.906Z,13.1
2023-04-23T22:27:12.001Z,12.9
2023-04-23T22:30:11.990Z,12.6
2023-04-23T22:33:12.154Z,12.5
2023-04-23T22:36:11.940Z,12.4
2023-04-23T22:39:11.932Z,12.4
2023-04-23T22:42:11.836Z,12.2
2023-04-23T22:45:11.884Z,12.1
2023-04-23T22:48:12.129Z,12.1
2023-04-23T22:51:14.844Z,12.1
2023-04-23T22:54:11.853Z,12.2
2023-04-23T22:57:11.942Z,12.2
2023-04-23T23:00:12.105Z,12.2
2023-04-23T23:03:12.905Z,12.2
2023-04-23T23:06:11.878Z,12.4
2023-04-23T23:09:11.826Z,12.4
2023-04-23T23:12:11.942Z,12.5
2023-04-23T23:15:11.932Z,12.5
2023-04-23T23:18:12.360Z,12.6
2023-04-23T23:21:11.825Z,12.6
2023-04-23T23:24:11.902Z,12.6
2023-04-23T23:27:11.898Z,12.8
2023-04-23T23:30:12.056Z,12.6
2023-04-23T23:33:12.304Z,12.5
2023-04-23T23:36:11.910Z,12.4
2023-04-23T23:39:11.929Z,12.2
2023-04-23T23:42:11.938Z,12
2023-04-23T23:45:11.936Z,11.8
2023-04-23T23:48:12.303Z,11.6
2023-04-23T23:51:12.054Z,11.4
2023-04-23T23:54:12.028Z,11.3
2023-04-23T23:57:11.874Z,11
